sensor_id;sensor_type;location;lat;lon;timestamp;P1;durP1;ratioP1;P2;durP2;ratioP2
10701;SDS011;5402;50.004;8.246;2024-01-15T00:00:00;15.03;;;6.80;;
10701;SDS011;5402;50.004;8.246;2024-01-15T00:02:28;18.63;;;7.33;;
10701;SDS011;5402;50.004;8.246;2024-01-15T00:04:55;19.40;;;6.90;;
10701;SDS011;5402;50.004;8.246;2024-01-15T00:07:22;16.13;;;7.27;;
10701;SDS011;5402;50.004;8.246;2024-01-15T00:09:49;18.47;;;7.73;;
10701;SDS011;5402;50.004;8.246;2024-01-15T00:12:15;16.47;;;6.80;;
10701;SDS011;5402;50.004;8.246;2024-01-15T00:14:42;15.97;;;6.17;;
10701;SDS011;5402;50.004;8.246;2024-01-15T00:17:10;18.43;;;8.17;;
10701;SDS011;5402;50.004;8.246;2024-01-15T00:19:37;15.93;;;7.10;;
10701;SDS011;5402;50.004;8.246;2024-01-15T00:22:04;17.20;;;7.20;;
10701;SDS011;5402;50.004;8.246;2024-01-15T00:24:31;19.60;;;7.20;;
10701;SDS011;5402;50.004;8.246;2024-01-15T00:26:58;18.97;;;8.17;;
10701;SDS011;5402;50.004;8.246;2024-01-15T00:29:25;17.07;;;7.43;;
10701;SDS011;5402;50.004;8.246;2024-01-15T00:31:51;18.03;;;7.13;;
10701;SDS011;5402;50.004;8.246;2024-01-15T00:34:20;15.33;;;7.27;;
10701;SDS011;5402;50.004;8.246;2024-01-15T00:36:46;18.60;;;6.77;;
10701;SDS011;5402;50.004;8.246;2024-01-15T00:39:13;15.47;;;7.03;;
10701;SDS011;5402;50.004;8.246;2024-01-15T00:41:41;17.07;;;6.57;;
10701;SDS011;5402;50.004;8.246;2024-01-15T00:44:08;13.70;;;7.13;;
10701;SDS011;5402;50.004;8.246;2024-01-15T00:46:41;17.70;;;7.33;;
10701;SDS011;5402;50.004;8.246;2024-01-15T00:49:09;15.97;;;7.37;;
10701;SDS011;5402;50.004;8.246;2024-01-15T00:51:38;14.63;;;6.83;;
10701;SDS011;5402;50.004;8.246;2024-01-15T00:54:05;17.13;;;7.83;;
10701;SDS011;5402;50.004;8.246;2024-01-15T00:56:31;19.63;;;7.70;;
10701;SDS011;5402;50.004;8.246;2024-01-15T00:58:59;17.90;;;7.17;;
10701;SDS011;5402;50.004;8.246;2024-01-15T01:01:26;16.67;;;7.00;;
10701;SDS011;5402;50.004;8.246;2024-01-15T01:03:53;19.97;;;7.43;;
10701;SDS011;5402;50.004;8.246;2024-01-15T01:06:20;17.70;;;6.87;;
10701;SDS011;5402;50.004;8.246;2024-01-15T01:08:48;18.80;;;7.57;;
10701;SDS011;5402;50.004;8.246;2024-01-15T01:11:15;17.70;;;7.40;;
10701;SDS011;5402;50.004;8.246;2024-01-15T01:13:42;17.03;;;7.77;;
10701;SDS011;5402;50.004;8.246;2024-01-15T01:16:09;17.10;;;7.33;;
10701;SDS011;5402;50.004;8.246;2024-01-15T01:18:35;17.93;;;7.40;;
10701;SDS011;5402;50.004;8.246;2024-01-15T01:21:02;19.43;;;7.17;;
10701;SDS011;5402;50.004;8.246;2024-01-15T01:23:29;13.47;;;6.73;;
10701;SDS011;5402;50.004;8.246;2024-01-15T01:25:57;15.63;;;7.03;;
10701;SDS011;5402;50.004;8.246;2024-01-15T01:28:24;17.10;;;7.67;;
10701;SDS011;5402;50.004;8.246;2024-01-15T01:30:51;18.30;;;7.17;;
10701;SDS011;5402;50.004;8.246;2024-01-15T01:33:18;17.33;;;6.83;;
10701;SDS011;5402;50.004;8.246;2024-01-15T01:35:44;17.70;;;6.93;;
10701;SDS011;5402;50.004;8.246;2024-01-15T01:38:11;18.83;;;7.50;;
10701;SDS011;5402;50.004;8.246;2024-01-15T01:40:38;14.70;;;6.27;;
10701;SDS011;5402;50.004;8.246;2024-01-15T01:43:08;19.67;;;6.83;;
10701;SDS011;5402;50.004;8.246;2024-01-15T01:45:35;16.20;;;7.17;;
10701;SDS011;5402;50.004;8.246;2024-01-15T01:48:02;13.10;;;6.83;;
10701;SDS011;5402;50.004;8.246;2024-01-15T01:50:30;14.80;;;7.07;;
10701;SDS011;5402;50.004;8.246;2024-01-15T01:52:57;17.53;;;6.67;;
10701;SDS011;5402;50.004;8.246;2024-01-15T01:55:25;17.20;;;6.83;;
10701;SDS011;5402;50.004;8.246;2024-01-15T01:57:55;12.33;;;5.93;;
10701;SDS011;5402;50.004;8.246;2024-01-15T02:00:23;17.73;;;6.53;;
10701;SDS011;5402;50.004;8.246;2024-01-15T02:02:52;22.43;;;7.00;;
10701;SDS011;5402;50.004;8.246;2024-01-15T02:05:19;18.00;;;6.70;;
10701;SDS011;5402;50.004;8.246;2024-01-15T02:07:47;16.53;;;7.53;;
10701;SDS011;5402;50.004;8.246;2024-01-15T02:10:14;13.43;;;7.10;;
10701;SDS011;5402;50.004;8.246;2024-01-15T02:12:41;15.00;;;6.73;;
10701;SDS011;5402;50.004;8.246;2024-01-15T02:15:09;15.03;;;6.53;;
10701;SDS011;5402;50.004;8.246;2024-01-15T02:17:46;18.07;;;7.10;;
10701;SDS011;5402;50.004;8.246;2024-01-15T02:20:23;17.73;;;6.07;;
10701;SDS011;5402;50.004;8.246;2024-01-15T02:22:50;17.77;;;7.43;;
10701;SDS011;5402;50.004;8.246;2024-01-15T02:25:18;15.80;;;6.60;;
10701;SDS011;5402;50.004;8.246;2024-01-15T02:27:45;16.20;;;7.63;;
10701;SDS011;5402;50.004;8.246;2024-01-15T02:30:13;16.43;;;6.27;;
10701;SDS011;5402;50.004;8.246;2024-01-15T02:32:40;17.03;;;6.97;;
10701;SDS011;5402;50.004;8.246;2024-01-15T02:35:07;13.87;;;6.20;;
10701;SDS011;5402;50.004;8.246;2024-01-15T02:37:33;15.47;;;7.40;;
10701;SDS011;5402;50.004;8.246;2024-01-15T02:40:00;14.33;;;6.53;;
10701;SDS011;5402;50.004;8.246;2024-01-15T02:42:28;17.90;;;7.20;;
10701;SDS011;5402;50.004;8.246;2024-01-15T02:44:55;15.47;;;6.80;;
10701;SDS011;5402;50.004;8.246;2024-01-15T02:47:21;17.70;;;5.87;;
10701;SDS011;5402;50.004;8.246;2024-01-15T02:49:50;15.00;;;5.97;;
10701;SDS011;5402;50.004;8.246;2024-01-15T02:52:17;13.23;;;5.83;;
10701;SDS011;5402;50.004;8.246;2024-01-15T02:54:44;15.00;;;6.60;;
10701;SDS011;5402;50.004;8.246;2024-01-15T02:57:11;16.27;;;6.37;;
10701;SDS011;5402;50.004;8.246;2024-01-15T02:59:39;12.93;;;5.50;;
10701;SDS011;5402;50.004;8.246;2024-01-15T03:02:05;13.07;;;6.00;;
10701;SDS011;5402;50.004;8.246;2024-01-15T03:04:32;13.23;;;6.20;;
10701;SDS011;5402;50.004;8.246;2024-01-15T03:06:59;14.20;;;6.47;;
10701;SDS011;5402;50.004;8.246;2024-01-15T03:09:26;14.53;;;6.07;;
10701;SDS011;5402;50.004;8.246;2024-01-15T03:11:52;14.00;;;6.73;;
10701;SDS011;5402;50.004;8.246;2024-01-15T03:14:19;17.20;;;6.87;;
10701;SDS011;5402;50.004;8.246;2024-01-15T03:16:47;16.23;;;6.83;;
10701;SDS011;5402;50.004;8.246;2024-01-15T03:19:14;12.60;;;5.67;;
10701;SDS011;5402;50.004;8.246;2024-01-15T03:21:41;11.37;;;5.90;;
10701;SDS011;5402;50.004;8.246;2024-01-15T03:24:07;15.63;;;6.27;;
10701;SDS011;5402;50.004;8.246;2024-01-15T03:26:34;15.43;;;5.43;;
10701;SDS011;5402;50.004;8.246;2024-01-15T03:29:01;13.80;;;4.77;;
10701;SDS011;5402;50.004;8.246;2024-01-15T03:31:28;13.63;;;5.73;;
10701;SDS011;5402;50.004;8.246;2024-01-15T03:33:56;10.77;;;5.03;;
10701;SDS011;5402;50.004;8.246;2024-01-15T03:36:23;14.47;;;5.57;;
10701;SDS011;5402;50.004;8.246;2024-01-15T03:38:49;13.03;;;5.70;;
10701;SDS011;5402;50.004;8.246;2024-01-15T03:41:16;13.97;;;6.67;;
10701;SDS011;5402;50.004;8.246;2024-01-15T03:43:43;12.23;;;4.63;;
10701;SDS011;5402;50.004;8.246;2024-01-15T03:46:10;16.37;;;6.77;;
10701;SDS011;5402;50.004;8.246;2024-01-15T03:48:37;16.57;;;6.20;;
10701;SDS011;5402;50.004;8.246;2024-01-15T03:51:06;16.47;;;6.20;;
10701;SDS011;5402;50.004;8.246;2024-01-15T03:53:32;15.03;;;6.07;;
10701;SDS011;5402;50.004;8.246;2024-01-15T03:55:59;15.40;;;5.43;;
10701;SDS011;5402;50.004;8.246;2024-01-15T03:58:26;15.77;;;6.13;;
10701;SDS011;5402;50.004;8.246;2024-01-15T04:00:53;14.07;;;6.70;;
10701;SDS011;5402;50.004;8.246;2024-01-15T04:03:19;18.47;;;6.53;;
10701;SDS011;5402;50.004;8.246;2024-01-15T04:05:46;16.73;;;6.07;;
10701;SDS011;5402;50.004;8.246;2024-01-15T04:08:14;16.17;;;5.80;;
10701;SDS011;5402;50.004;8.246;2024-01-15T04:10:41;16.17;;;7.07;;
10701;SDS011;5402;50.004;8.246;2024-01-15T04:13:08;19.73;;;6.50;;
10701;SDS011;5402;50.004;8.246;2024-01-15T04:15:34;15.43;;;6.13;;
10701;SDS011;5402;50.004;8.246;2024-01-15T04:18:03;15.50;;;6.67;;
10701;SDS011;5402;50.004;8.246;2024-01-15T04:20:30;15.77;;;6.67;;
10701;SDS011;5402;50.004;8.246;2024-01-15T04:22:57;15.13;;;7.30;;
10701;SDS011;5402;50.004;8.246;2024-01-15T04:25:25;11.07;;;5.57;;
10701;SDS011;5402;50.004;8.246;2024-01-15T04:27:52;12.37;;;5.70;;
10701;SDS011;5402;50.004;8.246;2024-01-15T04:30:18;15.90;;;6.40;;
10701;SDS011;5402;50.004;8.246;2024-01-15T04:32:45;14.97;;;6.57;;
10701;SDS011;5402;50.004;8.246;2024-01-15T04:35:12;18.83;;;6.93;;
10701;SDS011;5402;50.004;8.246;2024-01-15T04:37:39;13.00;;;6.73;;
10701;SDS011;5402;50.004;8.246;2024-01-15T04:40:06;14.07;;;6.30;;
10701;SDS011;5402;50.004;8.246;2024-01-15T04:42:38;17.87;;;7.37;;
10701;SDS011;5402;50.004;8.246;2024-01-15T04:45:05;16.43;;;5.63;;
10701;SDS011;5402;50.004;8.246;2024-01-15T04:47:32;17.93;;;7.17;;
10701;SDS011;5402;50.004;8.246;2024-01-15T04:49:59;14.73;;;6.30;;
10701;SDS011;5402;50.004;8.246;2024-01-15T04:52:25;15.40;;;6.80;;
10701;SDS011;5402;50.004;8.246;2024-01-15T04:54:52;17.53;;;7.30;;
10701;SDS011;5402;50.004;8.246;2024-01-15T04:57:19;17.67;;;7.03;;
10701;SDS011;5402;50.004;8.246;2024-01-15T04:59:47;16.13;;;7.57;;
10701;SDS011;5402;50.004;8.246;2024-01-15T05:02:14;14.67;;;6.70;;
10701;SDS011;5402;50.004;8.246;2024-01-15T05:04:41;15.73;;;6.93;;
10701;SDS011;5402;50.004;8.246;2024-01-15T05:07:07;18.43;;;7.07;;
10701;SDS011;5402;50.004;8.246;2024-01-15T05:09:34;18.40;;;7.50;;
10701;SDS011;5402;50.004;8.246;2024-01-15T05:12:01;15.73;;;6.83;;
10701;SDS011;5402;50.004;8.246;2024-01-15T05:14:28;17.90;;;8.73;;
10701;SDS011;5402;50.004;8.246;2024-01-15T05:16:56;13.47;;;6.70;;
10701;SDS011;5402;50.004;8.246;2024-01-15T05:19:23;13.97;;;6.47;;
10701;SDS011;5402;50.004;8.246;2024-01-15T05:21:51;16.83;;;7.07;;
10701;SDS011;5402;50.004;8.246;2024-01-15T05:24:17;20.30;;;7.40;;
10701;SDS011;5402;50.004;8.246;2024-01-15T05:26:44;18.87;;;7.67;;
10701;SDS011;5402;50.004;8.246;2024-01-15T05:29:12;15.63;;;6.53;;
10701;SDS011;5402;50.004;8.246;2024-01-15T05:31:38;18.93;;;6.77;;
10701;SDS011;5402;50.004;8.246;2024-01-15T05:34:06;19.20;;;7.07;;
10701;SDS011;5402;50.004;8.246;2024-01-15T05:36:33;15.93;;;6.27;;
10701;SDS011;5402;50.004;8.246;2024-01-15T05:39:00;18.67;;;7.60;;
10701;SDS011;5402;50.004;8.246;2024-01-15T05:41:27;15.77;;;7.17;;
10701;SDS011;5402;50.004;8.246;2024-01-15T05:43:54;16.93;;;6.97;;
10701;SDS011;5402;50.004;8.246;2024-01-15T05:46:20;17.60;;;6.63;;
10701;SDS011;5402;50.004;8.246;2024-01-15T05:48:47;16.53;;;6.67;;
10701;SDS011;5402;50.004;8.246;2024-01-15T05:51:15;16.30;;;7.00;;
10701;SDS011;5402;50.004;8.246;2024-01-15T05:53:42;18.40;;;7.03;;
10701;SDS011;5402;50.004;8.246;2024-01-15T05:56:09;17.73;;;6.93;;
10701;SDS011;5402;50.004;8.246;2024-01-15T05:58:39;13.50;;;5.83;;
10701;SDS011;5402;50.004;8.246;2024-01-15T06:01:06;15.70;;;6.73;;
10701;SDS011;5402;50.004;8.246;2024-01-15T06:03:32;17.97;;;7.83;;
10701;SDS011;5402;50.004;8.246;2024-01-15T06:05:59;16.40;;;6.77;;
10701;SDS011;5402;50.004;8.246;2024-01-15T06:08:28;14.33;;;6.77;;
10701;SDS011;5402;50.004;8.246;2024-01-15T06:10:55;19.10;;;6.83;;
10701;SDS011;5402;50.004;8.246;2024-01-15T06:13:22;16.47;;;6.53;;
10701;SDS011;5402;50.004;8.246;2024-01-15T06:15:49;12.67;;;5.77;;
10701;SDS011;5402;50.004;8.246;2024-01-15T06:18:16;15.40;;;7.00;;
10701;SDS011;5402;50.004;8.246;2024-01-15T06:20:43;14.87;;;6.50;;
10701;SDS011;5402;50.004;8.246;2024-01-15T06:23:10;15.23;;;6.60;;
10701;SDS011;5402;50.004;8.246;2024-01-15T06:25:38;15.13;;;6.87;;
10701;SDS011;5402;50.004;8.246;2024-01-15T06:28:04;15.40;;;6.47;;
10701;SDS011;5402;50.004;8.246;2024-01-15T06:30:31;15.53;;;6.33;;
10701;SDS011;5402;50.004;8.246;2024-01-15T06:32:59;14.87;;;7.37;;
10701;SDS011;5402;50.004;8.246;2024-01-15T06:35:26;16.17;;;6.53;;
10701;SDS011;5402;50.004;8.246;2024-01-15T06:37:53;18.10;;;7.30;;
10701;SDS011;5402;50.004;8.246;2024-01-15T06:40:20;13.97;;;6.30;;
10701;SDS011;5402;50.004;8.246;2024-01-15T06:42:48;20.70;;;7.50;;
10701;SDS011;5402;50.004;8.246;2024-01-15T06:45:14;17.73;;;7.13;;
10701;SDS011;5402;50.004;8.246;2024-01-15T06:47:41;14.67;;;6.90;;
10701;SDS011;5402;50.004;8.246;2024-01-15T06:50:08;16.23;;;7.33;;
10701;SDS011;5402;50.004;8.246;2024-01-15T06:52:35;16.60;;;7.07;;
10701;SDS011;5402;50.004;8.246;2024-01-15T06:55:02;17.03;;;6.63;;
10701;SDS011;5402;50.004;8.246;2024-01-15T06:57:30;17.87;;;8.17;;
10701;SDS011;5402;50.004;8.246;2024-01-15T06:59:59;17.00;;;7.30;;
10701;SDS011;5402;50.004;8.246;2024-01-15T07:02:26;19.50;;;8.13;;
10701;SDS011;5402;50.004;8.246;2024-01-15T07:04:52;19.57;;;8.20;;
10701;SDS011;5402;50.004;8.246;2024-01-15T07:07:19;13.97;;;6.57;;
10701;SDS011;5402;50.004;8.246;2024-01-15T07:09:46;13.83;;;6.73;;
10701;SDS011;5402;50.004;8.246;2024-01-15T07:12:13;13.80;;;7.33;;
10701;SDS011;5402;50.004;8.246;2024-01-15T07:14:41;16.23;;;8.30;;
10701;SDS011;5402;50.004;8.246;2024-01-15T07:17:09;20.03;;;7.20;;
10701;SDS011;5402;50.004;8.246;2024-01-15T07:19:36;14.23;;;7.53;;
10701;SDS011;5402;50.004;8.246;2024-01-15T07:22:03;13.57;;;6.73;;
10701;SDS011;5402;50.004;8.246;2024-01-15T07:24:31;16.80;;;6.80;;
10701;SDS011;5402;50.004;8.246;2024-01-15T07:26:59;19.07;;;8.23;;
10701;SDS011;5402;50.004;8.246;2024-01-15T07:29:26;15.80;;;7.50;;
10701;SDS011;5402;50.004;8.246;2024-01-15T07:31:52;16.40;;;7.57;;
10701;SDS011;5402;50.004;8.246;2024-01-15T07:34:21;18.20;;;7.37;;
10701;SDS011;5402;50.004;8.246;2024-01-15T07:36:48;14.60;;;7.03;;
10701;SDS011;5402;50.004;8.246;2024-01-15T07:39:14;21.37;;;7.93;;
10701;SDS011;5402;50.004;8.246;2024-01-15T07:41:41;14.20;;;7.10;;
10701;SDS011;5402;50.004;8.246;2024-01-15T07:44:08;16.43;;;8.00;;
10701;SDS011;5402;50.004;8.246;2024-01-15T07:46:35;15.93;;;7.60;;
10701;SDS011;5402;50.004;8.246;2024-01-15T07:49:02;16.57;;;7.60;;
10701;SDS011;5402;50.004;8.246;2024-01-15T07:51:31;18.93;;;8.30;;
10701;SDS011;5402;50.004;8.246;2024-01-15T07:53:58;18.80;;;7.93;;
10701;SDS011;5402;50.004;8.246;2024-01-15T07:56:25;16.20;;;6.83;;
10701;SDS011;5402;50.004;8.246;2024-01-15T07:58:52;17.30;;;7.23;;
10701;SDS011;5402;50.004;8.246;2024-01-15T08:01:19;13.53;;;6.23;;
10701;SDS011;5402;50.004;8.246;2024-01-15T08:03:45;18.57;;;7.03;;
10701;SDS011;5402;50.004;8.246;2024-01-15T08:06:13;17.97;;;7.43;;
10701;SDS011;5402;50.004;8.246;2024-01-15T08:08:40;16.67;;;7.10;;
10701;SDS011;5402;50.004;8.246;2024-01-15T08:11:07;17.00;;;7.60;;
10701;SDS011;5402;50.004;8.246;2024-01-15T08:13:33;16.03;;;7.23;;
10701;SDS011;5402;50.004;8.246;2024-01-15T08:16:00;17.20;;;7.73;;
10701;SDS011;5402;50.004;8.246;2024-01-15T08:18:27;15.77;;;7.47;;
10701;SDS011;5402;50.004;8.246;2024-01-15T08:20:54;17.93;;;7.60;;
10701;SDS011;5402;50.004;8.246;2024-01-15T08:23:20;16.57;;;7.67;;
10701;SDS011;5402;50.004;8.246;2024-01-15T08:25:48;14.30;;;6.03;;
10701;SDS011;5402;50.004;8.246;2024-01-15T08:28:15;12.60;;;5.50;;
10701;SDS011;5402;50.004;8.246;2024-01-15T08:30:42;17.00;;;7.97;;
10701;SDS011;5402;50.004;8.246;2024-01-15T08:33:09;16.90;;;7.33;;
10701;SDS011;5402;50.004;8.246;2024-01-15T08:35:38;15.83;;;6.80;;
10701;SDS011;5402;50.004;8.246;2024-01-15T08:38:04;17.20;;;7.57;;
10701;SDS011;5402;50.004;8.246;2024-01-15T08:40:31;14.60;;;7.03;;
10701;SDS011;5402;50.004;8.246;2024-01-15T08:42:59;14.07;;;6.43;;
10701;SDS011;5402;50.004;8.246;2024-01-15T08:45:27;14.50;;;6.23;;
10701;SDS011;5402;50.004;8.246;2024-01-15T08:47:53;12.77;;;6.27;;
10701;SDS011;5402;50.004;8.246;2024-01-15T08:50:20;16.27;;;7.10;;
10701;SDS011;5402;50.004;8.246;2024-01-15T08:52:50;14.90;;;6.50;;
10701;SDS011;5402;50.004;8.246;2024-01-15T08:55:17;15.87;;;7.03;;
10701;SDS011;5402;50.004;8.246;2024-01-15T08:57:44;15.70;;;6.50;;
10701;SDS011;5402;50.004;8.246;2024-01-15T09:00:19;16.02;;;7.10;;
10701;SDS011;5402;50.004;8.246;2024-01-15T09:02:46;14.53;;;7.10;;
10701;SDS011;5402;50.004;8.246;2024-01-15T09:05:13;13.67;;;6.53;;
10701;SDS011;5402;50.004;8.246;2024-01-15T09:07:40;13.73;;;6.83;;
10701;SDS011;5402;50.004;8.246;2024-01-15T09:10:07;12.23;;;6.13;;
10701;SDS011;5402;50.004;8.246;2024-01-15T09:12:34;14.77;;;6.67;;
10701;SDS011;5402;50.004;8.246;2024-01-15T09:15:01;13.97;;;7.00;;
10701;SDS011;5402;50.004;8.246;2024-01-15T09:17:30;12.33;;;6.63;;
10701;SDS011;5402;50.004;8.246;2024-01-15T09:19:57;15.07;;;6.80;;
10701;SDS011;5402;50.004;8.246;2024-01-15T09:22:24;12.43;;;6.03;;
10701;SDS011;5402;50.004;8.246;2024-01-15T09:24:51;15.50;;;6.40;;
10701;SDS011;5402;50.004;8.246;2024-01-15T09:27:17;12.93;;;6.27;;
10701;SDS011;5402;50.004;8.246;2024-01-15T09:29:44;12.67;;;5.97;;
10701;SDS011;5402;50.004;8.246;2024-01-15T09:32:14;14.60;;;5.73;;
10701;SDS011;5402;50.004;8.246;2024-01-15T09:34:42;13.10;;;6.63;;
10701;SDS011;5402;50.004;8.246;2024-01-15T09:37:09;10.90;;;5.30;;
10701;SDS011;5402;50.004;8.246;2024-01-15T09:39:36;13.93;;;6.23;;
10701;SDS011;5402;50.004;8.246;2024-01-15T09:42:03;12.87;;;6.47;;
10701;SDS011;5402;50.004;8.246;2024-01-15T09:44:30;10.03;;;5.87;;
10701;SDS011;5402;50.004;8.246;2024-01-15T09:46:58;14.57;;;6.50;;
10701;SDS011;5402;50.004;8.246;2024-01-15T09:49:25;13.57;;;6.30;;
10701;SDS011;5402;50.004;8.246;2024-01-15T09:51:53;11.20;;;5.97;;
10701;SDS011;5402;50.004;8.246;2024-01-15T09:54:22;13.50;;;6.50;;
10701;SDS011;5402;50.004;8.246;2024-01-15T09:56:49;13.40;;;6.33;;
10701;SDS011;5402;50.004;8.246;2024-01-15T09:59:17;14.07;;;6.37;;
10701;SDS011;5402;50.004;8.246;2024-01-15T10:01:45;15.50;;;6.23;;
10701;SDS011;5402;50.004;8.246;2024-01-15T10:04:12;14.07;;;6.87;;
10701;SDS011;5402;50.004;8.246;2024-01-15T10:06:40;14.57;;;6.67;;
10701;SDS011;5402;50.004;8.246;2024-01-15T10:09:13;11.57;;;6.20;;
10701;SDS011;5402;50.004;8.246;2024-01-15T10:11:40;14.00;;;6.03;;
10701;SDS011;5402;50.004;8.246;2024-01-15T10:14:08;13.27;;;6.00;;
10701;SDS011;5402;50.004;8.246;2024-01-15T10:16:37;12.57;;;6.53;;
10701;SDS011;5402;50.004;8.246;2024-01-15T10:19:04;13.63;;;6.97;;
10701;SDS011;5402;50.004;8.246;2024-01-15T10:21:31;13.37;;;6.20;;
10701;SDS011;5402;50.004;8.246;2024-01-15T10:23:59;11.70;;;6.00;;
10701;SDS011;5402;50.004;8.246;2024-01-15T10:26:29;11.97;;;6.83;;
10701;SDS011;5402;50.004;8.246;2024-01-15T10:28:58;11.97;;;6.33;;
10701;SDS011;5402;50.004;8.246;2024-01-15T10:31:25;12.70;;;5.93;;
10701;SDS011;5402;50.004;8.246;2024-01-15T10:33:52;11.67;;;5.80;;
10701;SDS011;5402;50.004;8.246;2024-01-15T10:36:19;10.77;;;6.13;;
10701;SDS011;5402;50.004;8.246;2024-01-15T10:38:46;11.47;;;6.00;;
10701;SDS011;5402;50.004;8.246;2024-01-15T10:41:13;14.13;;;7.10;;
10701;SDS011;5402;50.004;8.246;2024-01-15T10:43:42;13.93;;;6.33;;
10701;SDS011;5402;50.004;8.246;2024-01-15T10:46:10;15.43;;;6.97;;
10701;SDS011;5402;50.004;8.246;2024-01-15T10:48:37;13.23;;;6.53;;
10701;SDS011;5402;50.004;8.246;2024-01-15T10:51:04;13.40;;;6.37;;
10701;SDS011;5402;50.004;8.246;2024-01-15T10:53:35;13.87;;;6.33;;
10701;SDS011;5402;50.004;8.246;2024-01-15T10:56:04;14.40;;;6.47;;
10701;SDS011;5402;50.004;8.246;2024-01-15T10:58:31;11.77;;;6.03;;
10701;SDS011;5402;50.004;8.246;2024-01-15T11:01:01;13.23;;;5.90;;
10701;SDS011;5402;50.004;8.246;2024-01-15T11:03:29;14.37;;;6.53;;
10701;SDS011;5402;50.004;8.246;2024-01-15T11:05:56;10.33;;;5.63;;
10701;SDS011;5402;50.004;8.246;2024-01-15T11:08:24;12.03;;;6.10;;
10701;SDS011;5402;50.004;8.246;2024-01-15T11:10:51;11.07;;;6.27;;
10701;SDS011;5402;50.004;8.246;2024-01-15T11:13:20;12.57;;;6.13;;
10701;SDS011;5402;50.004;8.246;2024-01-15T11:15:57;13.50;;;6.37;;
10701;SDS011;5402;50.004;8.246;2024-01-15T11:18:27;11.27;;;6.30;;
10701;SDS011;5402;50.004;8.246;2024-01-15T11:23:48;10.67;;;5.63;;
10701;SDS011;5402;50.004;8.246;2024-01-15T11:26:33;9.67;;;4.67;;
10701;SDS011;5402;50.004;8.246;2024-01-15T11:29:02;12.23;;;6.00;;
10701;SDS011;5402;50.004;8.246;2024-01-15T11:37:20;9.03;;;4.97;;
10701;SDS011;5402;50.004;8.246;2024-01-15T11:39:50;9.57;;;5.20;;
10701;SDS011;5402;50.004;8.246;2024-01-15T11:42:19;9.37;;;5.37;;
10701;SDS011;5402;50.004;8.246;2024-01-15T11:44:46;9.30;;;5.27;;
10701;SDS011;5402;50.004;8.246;2024-01-15T11:47:13;10.07;;;6.30;;
10701;SDS011;5402;50.004;8.246;2024-01-15T11:49:50;9.57;;;5.33;;
10701;SDS011;5402;50.004;8.246;2024-01-15T11:52:31;7.80;;;4.53;;
10701;SDS011;5402;50.004;8.246;2024-01-15T11:55:12;9.17;;;5.87;;
10701;SDS011;5402;50.004;8.246;2024-01-15T11:57:45;9.63;;;5.10;;
10701;SDS011;5402;50.004;8.246;2024-01-15T12:00:13;10.27;;;5.20;;
10701;SDS011;5402;50.004;8.246;2024-01-15T12:02:40;9.47;;;5.00;;
10701;SDS011;5402;50.004;8.246;2024-01-15T12:05:08;9.97;;;5.30;;
10701;SDS011;5402;50.004;8.246;2024-01-15T12:07:37;10.03;;;5.47;;
10701;SDS011;5402;50.004;8.246;2024-01-15T12:10:07;9.87;;;5.00;;
10701;SDS011;5402;50.004;8.246;2024-01-15T12:12:37;9.53;;;4.87;;
10701;SDS011;5402;50.004;8.246;2024-01-15T12:15:11;9.27;;;4.80;;
10701;SDS011;5402;50.004;8.246;2024-01-15T12:17:38;8.83;;;5.07;;
10701;SDS011;5402;50.004;8.246;2024-01-15T12:20:05;10.60;;;4.97;;
10701;SDS011;5402;50.004;8.246;2024-01-15T12:22:33;8.33;;;5.13;;
10701;SDS011;5402;50.004;8.246;2024-01-15T12:25:00;8.70;;;4.37;;
10701;SDS011;5402;50.004;8.246;2024-01-15T12:27:27;8.00;;;5.00;;
10701;SDS011;5402;50.004;8.246;2024-01-15T12:29:53;8.50;;;5.23;;
10701;SDS011;5402;50.004;8.246;2024-01-15T12:32:20;8.40;;;4.03;;
10701;SDS011;5402;50.004;8.246;2024-01-15T12:34:48;9.63;;;4.60;;
10701;SDS011;5402;50.004;8.246;2024-01-15T12:37:17;8.47;;;4.83;;
10701;SDS011;5402;50.004;8.246;2024-01-15T12:39:45;8.77;;;4.77;;
10701;SDS011;5402;50.004;8.246;2024-01-15T12:42:13;7.80;;;4.63;;
10701;SDS011;5402;50.004;8.246;2024-01-15T12:44:41;12.20;;;5.20;;
10701;SDS011;5402;50.004;8.246;2024-01-15T12:47:08;6.70;;;4.90;;
10701;SDS011;5402;50.004;8.246;2024-01-15T12:49:36;9.03;;;4.57;;
10701;SDS011;5402;50.004;8.246;2024-01-15T12:52:07;9.43;;;4.47;;
10701;SDS011;5402;50.004;8.246;2024-01-15T12:54:35;7.57;;;4.67;;
10701;SDS011;5402;50.004;8.246;2024-01-15T12:57:06;8.23;;;4.80;;
10701;SDS011;5402;50.004;8.246;2024-01-15T12:59:33;7.73;;;4.90;;
10701;SDS011;5402;50.004;8.246;2024-01-15T13:01:59;9.13;;;4.50;;
10701;SDS011;5402;50.004;8.246;2024-01-15T13:04:26;6.87;;;4.43;;
10701;SDS011;5402;50.004;8.246;2024-01-15T13:06:54;9.80;;;4.93;;
10701;SDS011;5402;50.004;8.246;2024-01-15T13:09:22;7.50;;;4.10;;
10701;SDS011;5402;50.004;8.246;2024-01-15T13:11:48;7.63;;;4.20;;
10701;SDS011;5402;50.004;8.246;2024-01-15T13:14:18;8.60;;;4.03;;
10701;SDS011;5402;50.004;8.246;2024-01-15T13:16:45;8.13;;;4.47;;
10701;SDS011;5402;50.004;8.246;2024-01-15T13:19:12;7.57;;;3.97;;
10701;SDS011;5402;50.004;8.246;2024-01-15T13:21:39;7.10;;;3.77;;
10701;SDS011;5402;50.004;8.246;2024-01-15T13:24:06;8.63;;;4.10;;
10701;SDS011;5402;50.004;8.246;2024-01-15T13:26:34;9.13;;;3.67;;
10701;SDS011;5402;50.004;8.246;2024-01-15T13:29:03;9.80;;;4.33;;
10701;SDS011;5402;50.004;8.246;2024-01-15T13:31:31;8.03;;;4.13;;
10701;SDS011;5402;50.004;8.246;2024-01-15T13:33:59;5.40;;;3.60;;
10701;SDS011;5402;50.004;8.246;2024-01-15T13:36:26;7.43;;;3.90;;
10701;SDS011;5402;50.004;8.246;2024-01-15T13:38:53;7.37;;;3.87;;
10701;SDS011;5402;50.004;8.246;2024-01-15T13:41:20;5.13;;;3.57;;
10701;SDS011;5402;50.004;8.246;2024-01-15T13:43:52;8.33;;;3.90;;
10701;SDS011;5402;50.004;8.246;2024-01-15T13:46:20;6.80;;;4.03;;
10701;SDS011;5402;50.004;8.246;2024-01-15T13:48:48;10.87;;;3.90;;
10701;SDS011;5402;50.004;8.246;2024-01-15T13:51:15;6.00;;;3.50;;
10701;SDS011;5402;50.004;8.246;2024-01-15T13:53:42;5.73;;;3.23;;
10701;SDS011;5402;50.004;8.246;2024-01-15T13:56:09;6.30;;;3.77;;
10701;SDS011;5402;50.004;8.246;2024-01-15T13:58:36;6.83;;;4.00;;
10701;SDS011;5402;50.004;8.246;2024-01-15T14:01:03;6.93;;;3.57;;
10701;SDS011;5402;50.004;8.246;2024-01-15T14:03:30;6.17;;;3.30;;
10701;SDS011;5402;50.004;8.246;2024-01-15T14:05:59;5.37;;;3.60;;
10701;SDS011;5402;50.004;8.246;2024-01-15T14:08:27;6.90;;;3.90;;
10701;SDS011;5402;50.004;8.246;2024-01-15T14:10:54;6.37;;;3.70;;
10701;SDS011;5402;50.004;8.246;2024-01-15T14:13:22;6.43;;;3.90;;
10701;SDS011;5402;50.004;8.246;2024-01-15T14:15:49;5.57;;;3.07;;
10701;SDS011;5402;50.004;8.246;2024-01-15T14:18:16;5.27;;;3.23;;
10701;SDS011;5402;50.004;8.246;2024-01-15T14:20:42;6.97;;;3.80;;
10701;SDS011;5402;50.004;8.246;2024-01-15T14:23:11;5.07;;;3.37;;
10701;SDS011;5402;50.004;8.246;2024-01-15T14:25:39;5.93;;;2.80;;
10701;SDS011;5402;50.004;8.246;2024-01-15T14:28:06;5.00;;;2.93;;
10701;SDS011;5402;50.004;8.246;2024-01-15T14:30:35;4.77;;;3.20;;
10701;SDS011;5402;50.004;8.246;2024-01-15T14:33:02;4.70;;;3.20;;
10701;SDS011;5402;50.004;8.246;2024-01-15T14:35:29;5.83;;;3.30;;
10701;SDS011;5402;50.004;8.246;2024-01-15T14:37:55;5.13;;;3.10;;
10701;SDS011;5402;50.004;8.246;2024-01-15T14:40:24;4.40;;;2.83;;
10701;SDS011;5402;50.004;8.246;2024-01-15T14:42:53;5.57;;;3.60;;
10701;SDS011;5402;50.004;8.246;2024-01-15T14:45:20;4.17;;;3.20;;
10701;SDS011;5402;50.004;8.246;2024-01-15T14:47:48;6.50;;;3.10;;
10701;SDS011;5402;50.004;8.246;2024-01-15T14:50:15;5.37;;;2.70;;
10701;SDS011;5402;50.004;8.246;2024-01-15T14:52:42;5.17;;;2.60;;
10701;SDS011;5402;50.004;8.246;2024-01-15T14:55:09;4.70;;;2.90;;
10701;SDS011;5402;50.004;8.246;2024-01-15T14:57:38;5.37;;;2.97;;
10701;SDS011;5402;50.004;8.246;2024-01-15T15:00:05;6.30;;;2.83;;